Details From UHMA - Ugolny
To UEEE - Yakutsk
Flight Number -
Tags Generated
Created
Modified
Stats Distance 1,268 nm / 2,349 km
Max Altitude 0 ft / 0 m
Waypoints 3
Social Downloads 0
Likes 0
Share VATSIM

Download

Looking for another format? Having issues loading an existing format? Contact us
Advertisement - Login to hide

Notes

Generated

Route

UHMA UTS UEEE

ID Type Via Altitude Latitude Longitude Leg Dist Tot Dist Heading (true) Name
O UHMA APT - 0 ft / 0 m 64.71979˚ 177.73219˚ - 0 nm - -
UTS VOR - 0 ft / 0 m 62.09167˚ 129.78319˚ 1267 nm 1267 nm 285° / 242° YAKUTSK VOR-DME
O UEEE APT - 0 ft / 0 m 62.08188˚ 129.75652˚ 0 nm 1268 nm 232° / 232° -

Altitude Profile

Advertisement - Login to hide

Weather


0- 5 10 15 20 25 30 35+ Temperature / ° C

Clouds and Precipitation
Forecast for 2017-12-19 00:00 UTC. Updated an hour ago

Ground ~20,000 ft ~40,000 ft Winds

UHMA

Details ICAO UHMA (DYR)
Name UGOLNY
Region Russia
Timezone Asia/Anadyr (UTC+12.0)
Stats Elevation 194 ft / 59 m (AMSL)
Location 64.734950° 177.741483°
Runways 1
Magnetic Variation 1.430° E

METAR

UHMA 182030Z 08028G37MPS 0050 R01/0050 BLSN VV001 M05/M06 Q0967 R88/////// NOSIG RMK END R01/08027G35MPS QBB040 QFE722/0962

Decode

TAF

TAF UHMA 181955Z 1821/1921 08015G20MPS 0800 +SN BLSN VV003 TEMPO 1821/1824 08020G25MPS 0300 +SN BLSN VV001 FM190000 08010G15MPS 2000 SN BLSN BKN006 OVC020 TEMPO 1900/1906 11006G11MPS 0800 +SN BLSN VV003 BECMG 1906/1908 10006MPS 4000 BR TEMPO 1906/1918 06006MPS 1000 SN BR VV003 BECMG 1918/1920 32006G11MPS 1000 BR

Decode

Departure Runways

ID Width Length Bearing (true) Bearing (mag) Surface Threshold Offset Overrun Length
01 197 ft / 60 m 11,439 ft / 3,487 m 14.65° 13.22° Concrete 0 ft / 0 m 240 ft / 73 m
19 197 ft / 60 m 11,439 ft / 3,487 m 194.66° 193.23° Concrete 0 ft / 0 m 240 ft / 73 m

UEEE

Details ICAO UEEE (YKS)
Name Yakutsk
Region Russia
Timezone Asia/Yakutsk (UTC+9.0)
Stats Elevation 325 ft / 99 m (AMSL)
Location 62.093249° 129.770678°
Runways 2
Magnetic Variation 15.673° W

METAR

UEEE 182030Z 05002MPS 2400 -SN BR NSC M41/M45 Q1017 R23L/490150 NOSIG RMK QFE754

Decode

TAF

TAF UEEE 182000Z 1821/2003 VRB01MPS 0300 FG VV002 TXM38/1906Z TNM43/1823Z TEMPO 1821/1912 1500 BR NSC

Decode

Destination Runways

ID Width Length Bearing (true) Bearing (mag) Surface Threshold Offset Overrun Length
05L 161 ft / 49 m 8,171 ft / 2,491 m 29.51° 45.18° Concrete 0 ft / 0 m 154 ft / 47 m
05R 197 ft / 60 m 11,120 ft / 3,389 m 36.88° 52.55° Asphalt 0 ft / 0 m 226 ft / 69 m
23L 197 ft / 60 m 11,120 ft / 3,389 m 216.92° 232.59° Asphalt 0 ft / 0 m 226 ft / 69 m
23R 161 ft / 49 m 8,171 ft / 2,491 m 209.53° 225.20° Concrete 3,399 ft / 1,036 m 164 ft / 50 m

Approach Navaids

Runway Type Ident Frequency Range Bearing (true) Bearing (mag) Slope Elevation
23L Localiser IMF 111.70 MHz 18 nm / 33 km 216.60° 232.28° - 325 ft / 99 m (AMSL)
23L Glidescope IMF 111.70 MHz 10 nm / 19 km 216.90° 232.57° 3.00° 325 ft / 99 m (AMSL)

Popular Alternatives